sensor_id;sensor_type;location;lat;lon;timestamp;P1;durP1;ratioP1;P2;durP2;ratioP2
71366;SDS011;60030;52.274;8.040;2022-08-03T00:00:14;7.00;;;4.30;;
71366;SDS011;60030;52.274;8.040;2022-08-03T00:02:41;5.13;;;4.55;;
71366;SDS011;60030;52.274;8.040;2022-08-03T00:05:08;5.55;;;4.10;;
71366;SDS011;60030;52.274;8.040;2022-08-03T00:07:37;6.45;;;3.92;;
71366;SDS011;60030;52.274;8.040;2022-08-03T00:10:05;4.20;;;3.67;;
71366;SDS011;60030;52.274;8.040;2022-08-03T00:12:33;4.80;;;3.42;;
71366;SDS011;60030;52.274;8.040;2022-08-03T00:15:00;4.85;;;3.45;;
71366;SDS011;60030;52.274;8.040;2022-08-03T00:17:28;3.53;;;3.00;;
71366;SDS011;60030;52.274;8.040;2022-08-03T00:19:55;3.90;;;3.20;;
71366;SDS011;60030;52.274;8.040;2022-08-03T00:22:22;4.10;;;3.58;;
71366;SDS011;60030;52.274;8.040;2022-08-03T00:24:50;4.28;;;3.53;;
71366;SDS011;60030;52.274;8.040;2022-08-03T00:27:17;4.72;;;3.50;;
71366;SDS011;60030;52.274;8.040;2022-08-03T00:29:44;6.18;;;3.40;;
71366;SDS011;60030;52.274;8.040;2022-08-03T00:32:11;3.45;;;3.13;;
71366;SDS011;60030;52.274;8.040;2022-08-03T00:34:38;3.33;;;3.03;;
71366;SDS011;60030;52.274;8.040;2022-08-03T00:37:05;4.68;;;3.15;;
71366;SDS011;60030;52.274;8.040;2022-08-03T00:39:32;4.05;;;3.10;;
71366;SDS011;60030;52.274;8.040;2022-08-03T00:42:02;3.35;;;2.92;;
71366;SDS011;60030;52.274;8.040;2022-08-03T00:44:29;4.35;;;3.45;;
71366;SDS011;60030;52.274;8.040;2022-08-03T00:46:56;4.97;;;3.22;;
71366;SDS011;60030;52.274;8.040;2022-08-03T00:49:23;3.72;;;3.33;;
71366;SDS011;60030;52.274;8.040;2022-08-03T00:51:50;3.40;;;3.10;;
71366;SDS011;60030;52.274;8.040;2022-08-03T00:54:17;4.90;;;3.42;;
71366;SDS011;60030;52.274;8.040;2022-08-03T00:56:46;7.38;;;3.38;;
71366;SDS011;60030;52.274;8.040;2022-08-03T00:59:15;5.13;;;3.58;;
71366;SDS011;60030;52.274;8.040;2022-08-03T01:01:43;3.63;;;2.83;;
71366;SDS011;60030;52.274;8.040;2022-08-03T01:04:10;3.47;;;2.80;;
71366;SDS011;60030;52.274;8.040;2022-08-03T01:06:40;4.32;;;3.60;;
71366;SDS011;60030;52.274;8.040;2022-08-03T01:09:14;3.63;;;2.72;;
71366;SDS011;60030;52.274;8.040;2022-08-03T01:11:48;4.65;;;3.28;;
71366;SDS011;60030;52.274;8.040;2022-08-03T01:14:22;3.42;;;3.13;;
71366;SDS011;60030;52.274;8.040;2022-08-03T01:16:54;5.10;;;2.80;;
71366;SDS011;60030;52.274;8.040;2022-08-03T01:19:35;3.85;;;3.15;;
71366;SDS011;60030;52.274;8.040;2022-08-03T01:22:17;3.35;;;3.05;;
71366;SDS011;60030;52.274;8.040;2022-08-03T01:24:58;5.78;;;4.43;;
71366;SDS011;60030;52.274;8.040;2022-08-03T01:27:35;5.22;;;3.30;;
71366;SDS011;60030;52.274;8.040;2022-08-03T01:30:16;4.22;;;3.03;;
71366;SDS011;60030;52.274;8.040;2022-08-03T01:32:46;5.60;;;3.00;;
71366;SDS011;60030;52.274;8.040;2022-08-03T01:35:21;5.20;;;3.10;;
71366;SDS011;60030;52.274;8.040;2022-08-03T01:37:55;3.70;;;3.20;;
71366;SDS011;60030;52.274;8.040;2022-08-03T01:40:24;4.15;;;3.00;;
71366;SDS011;60030;52.274;8.040;2022-08-03T01:42:53;3.90;;;3.10;;
71366;SDS011;60030;52.274;8.040;2022-08-03T01:45:24;3.65;;;3.25;;
71366;SDS011;60030;52.274;8.040;2022-08-03T01:47:53;4.10;;;3.60;;
71366;SDS011;60030;52.274;8.040;2022-08-03T01:50:22;4.85;;;3.85;;
71366;SDS011;60030;52.274;8.040;2022-08-03T01:52:53;3.22;;;2.92;;
71366;SDS011;60030;52.274;8.040;2022-08-03T01:55:21;5.50;;;3.60;;
71366;SDS011;60030;52.274;8.040;2022-08-03T01:57:51;3.97;;;3.20;;
71366;SDS011;60030;52.274;8.040;2022-08-03T02:00:20;6.28;;;3.75;;
71366;SDS011;60030;52.274;8.040;2022-08-03T02:02:50;6.32;;;3.33;;
71366;SDS011;60030;52.274;8.040;2022-08-03T02:05:20;4.93;;;3.85;;
71366;SDS011;60030;52.274;8.040;2022-08-03T02:07:48;5.45;;;3.90;;
71366;SDS011;60030;52.274;8.040;2022-08-03T02:10:17;5.07;;;3.78;;
71366;SDS011;60030;52.274;8.040;2022-08-03T02:12:46;6.70;;;3.80;;
71366;SDS011;60030;52.274;8.040;2022-08-03T02:15:15;4.25;;;3.75;;
71366;SDS011;60030;52.274;8.040;2022-08-03T02:17:45;5.47;;;3.53;;
71366;SDS011;60030;52.274;8.040;2022-08-03T02:20:13;5.75;;;3.90;;
71366;SDS011;60030;52.274;8.040;2022-08-03T02:22:42;4.03;;;3.35;;
71366;SDS011;60030;52.274;8.040;2022-08-03T02:25:12;5.40;;;4.03;;
71366;SDS011;60030;52.274;8.040;2022-08-03T02:27:42;6.13;;;3.90;;
71366;SDS011;60030;52.274;8.040;2022-08-03T02:30:15;3.65;;;3.35;;
71366;SDS011;60030;52.274;8.040;2022-08-03T02:32:47;8.68;;;3.80;;
71366;SDS011;60030;52.274;8.040;2022-08-03T02:35:17;5.30;;;3.50;;
71366;SDS011;60030;52.274;8.040;2022-08-03T02:37:49;5.68;;;3.90;;
71366;SDS011;60030;52.274;8.040;2022-08-03T02:40:21;5.03;;;3.70;;
71366;SDS011;60030;52.274;8.040;2022-08-03T02:42:50;6.82;;;3.72;;
71366;SDS011;60030;52.274;8.040;2022-08-03T02:45:21;5.28;;;3.80;;
71366;SDS011;60030;52.274;8.040;2022-08-03T02:47:54;4.60;;;3.70;;
71366;SDS011;60030;52.274;8.040;2022-08-03T02:50:25;5.60;;;3.78;;
71366;SDS011;60030;52.274;8.040;2022-08-03T02:52:54;6.57;;;3.47;;
71366;SDS011;60030;52.274;8.040;2022-08-03T02:55:24;5.10;;;4.00;;
71366;SDS011;60030;52.274;8.040;2022-08-03T02:57:52;6.53;;;3.47;;
71366;SDS011;60030;52.274;8.040;2022-08-03T03:00:21;4.30;;;3.65;;
71366;SDS011;60030;52.274;8.040;2022-08-03T03:02:48;4.90;;;3.63;;
71366;SDS011;60030;52.274;8.040;2022-08-03T03:05:18;5.43;;;3.42;;
71366;SDS011;60030;52.274;8.040;2022-08-03T03:07:46;3.88;;;3.53;;
71366;SDS011;60030;52.274;8.040;2022-08-03T03:10:13;6.57;;;4.25;;
71366;SDS011;60030;52.274;8.040;2022-08-03T03:12:40;6.07;;;3.67;;
71366;SDS011;60030;52.274;8.040;2022-08-03T03:15:10;4.13;;;3.50;;
71366;SDS011;60030;52.274;8.040;2022-08-03T03:17:37;4.10;;;3.70;;
71366;SDS011;60030;52.274;8.040;2022-08-03T03:20:05;6.35;;;3.33;;
71366;SDS011;60030;52.274;8.040;2022-08-03T03:22:35;4.75;;;4.00;;
71366;SDS011;60030;52.274;8.040;2022-08-03T03:25:04;4.72;;;3.92;;
71366;SDS011;60030;52.274;8.040;2022-08-03T03:27:32;4.85;;;3.38;;
71366;SDS011;60030;52.274;8.040;2022-08-03T03:30:00;3.55;;;3.22;;
71366;SDS011;60030;52.274;8.040;2022-08-03T03:32:27;3.67;;;3.20;;
71366;SDS011;60030;52.274;8.040;2022-08-03T03:34:55;5.40;;;3.47;;
71366;SDS011;60030;52.274;8.040;2022-08-03T03:37:23;5.32;;;4.00;;
71366;SDS011;60030;52.274;8.040;2022-08-03T03:39:53;4.15;;;3.22;;
71366;SDS011;60030;52.274;8.040;2022-08-03T03:42:20;3.75;;;3.38;;
71366;SDS011;60030;52.274;8.040;2022-08-03T03:44:47;6.63;;;4.45;;
71366;SDS011;60030;52.274;8.040;2022-08-03T03:47:15;4.05;;;3.65;;
71366;SDS011;60030;52.274;8.040;2022-08-03T03:49:42;4.55;;;3.63;;
71366;SDS011;60030;52.274;8.040;2022-08-03T03:52:10;4.82;;;4.13;;
71366;SDS011;60030;52.274;8.040;2022-08-03T03:54:40;4.88;;;3.90;;
71366;SDS011;60030;52.274;8.040;2022-08-03T03:57:09;4.28;;;3.65;;
71366;SDS011;60030;52.274;8.040;2022-08-03T03:59:37;4.25;;;3.72;;
71366;SDS011;60030;52.274;8.040;2022-08-03T04:02:04;3.90;;;3.35;;
71366;SDS011;60030;52.274;8.040;2022-08-03T04:04:32;5.05;;;4.00;;
71366;SDS011;60030;52.274;8.040;2022-08-03T04:07:17;6.45;;;3.95;;
71366;SDS011;60030;52.274;8.040;2022-08-03T04:10:03;8.27;;;4.55;;
71366;SDS011;60030;52.274;8.040;2022-08-03T04:12:53;4.68;;;3.95;;
71366;SDS011;60030;52.274;8.040;2022-08-03T04:15:24;6.18;;;3.72;;
71366;SDS011;60030;52.274;8.040;2022-08-03T04:17:52;5.05;;;3.80;;
71366;SDS011;60030;52.274;8.040;2022-08-03T04:20:23;3.78;;;3.47;;
71366;SDS011;60030;52.274;8.040;2022-08-03T04:22:54;6.55;;;4.43;;
71366;SDS011;60030;52.274;8.040;2022-08-03T04:25:24;4.07;;;3.63;;
71366;SDS011;60030;52.274;8.040;2022-08-03T04:27:55;6.07;;;4.13;;
71366;SDS011;60030;52.274;8.040;2022-08-03T04:30:24;4.47;;;4.07;;
71366;SDS011;60030;52.274;8.040;2022-08-03T04:32:53;6.15;;;3.88;;
71366;SDS011;60030;52.274;8.040;2022-08-03T04:35:21;4.68;;;3.90;;
71366;SDS011;60030;52.274;8.040;2022-08-03T04:37:50;5.53;;;4.20;;
71366;SDS011;60030;52.274;8.040;2022-08-03T04:40:21;5.90;;;3.78;;
71366;SDS011;60030;52.274;8.040;2022-08-03T04:42:52;8.50;;;4.78;;
71366;SDS011;60030;52.274;8.040;2022-08-03T04:45:23;5.68;;;4.13;;
71366;SDS011;60030;52.274;8.040;2022-08-03T04:47:52;6.03;;;4.30;;
71366;SDS011;60030;52.274;8.040;2022-08-03T04:50:20;4.82;;;4.32;;
71366;SDS011;60030;52.274;8.040;2022-08-03T04:53:02;8.07;;;4.30;;
71366;SDS011;60030;52.274;8.040;2022-08-03T04:55:32;5.60;;;4.72;;
71366;SDS011;60030;52.274;8.040;2022-08-03T04:58:01;6.07;;;4.55;;
71366;SDS011;60030;52.274;8.040;2022-08-03T05:00:30;8.93;;;4.60;;
71366;SDS011;60030;52.274;8.040;2022-08-03T05:02:57;8.35;;;4.53;;
71366;SDS011;60030;52.274;8.040;2022-08-03T05:05:24;6.85;;;4.55;;
71366;SDS011;60030;52.274;8.040;2022-08-03T05:07:51;8.45;;;4.72;;
71366;SDS011;60030;52.274;8.040;2022-08-03T05:10:19;6.07;;;4.90;;
71366;SDS011;60030;52.274;8.040;2022-08-03T05:12:46;6.90;;;4.28;;
71366;SDS011;60030;52.274;8.040;2022-08-03T05:15:17;8.50;;;5.20;;
71366;SDS011;60030;52.274;8.040;2022-08-03T05:17:44;5.93;;;4.43;;
71366;SDS011;60030;52.274;8.040;2022-08-03T05:20:11;6.72;;;5.28;;
71366;SDS011;60030;52.274;8.040;2022-08-03T05:22:38;13.73;;;9.23;;
71366;SDS011;60030;52.274;8.040;2022-08-03T05:25:06;9.23;;;6.90;;
71366;SDS011;60030;52.274;8.040;2022-08-03T05:27:33;6.47;;;5.10;;
71366;SDS011;60030;52.274;8.040;2022-08-03T05:30:00;7.20;;;4.85;;
71366;SDS011;60030;52.274;8.040;2022-08-03T05:32:28;6.80;;;4.20;;
71366;SDS011;60030;52.274;8.040;2022-08-03T05:34:56;7.00;;;4.72;;
71366;SDS011;60030;52.274;8.040;2022-08-03T05:37:23;7.30;;;4.35;;
71366;SDS011;60030;52.274;8.040;2022-08-03T05:39:50;8.00;;;4.60;;
71366;SDS011;60030;52.274;8.040;2022-08-03T05:42:17;4.28;;;3.83;;
71366;SDS011;60030;52.274;8.040;2022-08-03T05:44:44;6.68;;;4.50;;
71366;SDS011;60030;52.274;8.040;2022-08-03T05:47:11;6.25;;;4.20;;
71366;SDS011;60030;52.274;8.040;2022-08-03T05:49:39;8.13;;;3.78;;
71366;SDS011;60030;52.274;8.040;2022-08-03T05:52:06;6.93;;;3.95;;
71366;SDS011;60030;52.274;8.040;2022-08-03T05:54:33;6.13;;;4.05;;
71366;SDS011;60030;52.274;8.040;2022-08-03T05:57:00;5.00;;;3.55;;
71366;SDS011;60030;52.274;8.040;2022-08-03T05:59:27;7.90;;;4.38;;
71366;SDS011;60030;52.274;8.040;2022-08-03T06:01:54;5.40;;;3.60;;
71366;SDS011;60030;52.274;8.040;2022-08-03T06:04:21;6.72;;;4.07;;
71366;SDS011;60030;52.274;8.040;2022-08-03T06:06:50;5.75;;;3.72;;
71366;SDS011;60030;52.274;8.040;2022-08-03T06:09:17;7.78;;;3.75;;
71366;SDS011;60030;52.274;8.040;2022-08-03T06:11:44;6.30;;;3.78;;
71366;SDS011;60030;52.274;8.040;2022-08-03T06:14:11;6.18;;;3.80;;
71366;SDS011;60030;52.274;8.040;2022-08-03T06:16:38;8.25;;;4.05;;
71366;SDS011;60030;52.274;8.040;2022-08-03T06:19:05;6.63;;;4.13;;
71366;SDS011;60030;52.274;8.040;2022-08-03T06:21:33;4.97;;;3.30;;
71366;SDS011;60030;52.274;8.040;2022-08-03T06:24:01;6.25;;;3.70;;
71366;SDS011;60030;52.274;8.040;2022-08-03T06:26:28;7.00;;;3.28;;
71366;SDS011;60030;52.274;8.040;2022-08-03T06:28:55;3.83;;;3.25;;
71366;SDS011;60030;52.274;8.040;2022-08-03T06:31:23;5.85;;;3.53;;
71366;SDS011;60030;52.274;8.040;2022-08-03T06:33:53;7.85;;;3.95;;
71366;SDS011;60030;52.274;8.040;2022-08-03T06:36:20;7.22;;;3.35;;
71366;SDS011;60030;52.274;8.040;2022-08-03T06:38:48;5.28;;;3.58;;
71366;SDS011;60030;52.274;8.040;2022-08-03T06:41:16;6.18;;;3.10;;
71366;SDS011;60030;52.274;8.040;2022-08-03T06:43:43;8.10;;;3.10;;
71366;SDS011;60030;52.274;8.040;2022-08-03T06:46:10;5.50;;;2.63;;
71366;SDS011;60030;52.274;8.040;2022-08-03T06:48:37;5.82;;;3.20;;
71366;SDS011;60030;52.274;8.040;2022-08-03T06:51:04;7.72;;;3.42;;
71366;SDS011;60030;52.274;8.040;2022-08-03T06:53:31;3.28;;;2.70;;
71366;SDS011;60030;52.274;8.040;2022-08-03T06:55:59;7.93;;;3.30;;
71366;SDS011;60030;52.274;8.040;2022-08-03T06:58:27;11.32;;;3.55;;
71366;SDS011;60030;52.274;8.040;2022-08-03T07:00:54;6.80;;;3.08;;
71366;SDS011;60030;52.274;8.040;2022-08-03T07:03:21;5.50;;;3.13;;
71366;SDS011;60030;52.274;8.040;2022-08-03T07:05:48;3.42;;;2.70;;
71366;SDS011;60030;52.274;8.040;2022-08-03T07:08:16;7.50;;;3.22;;
71366;SDS011;60030;52.274;8.040;2022-08-03T07:10:43;3.67;;;2.60;;
71366;SDS011;60030;52.274;8.040;2022-08-03T07:13:11;6.72;;;3.42;;
71366;SDS011;60030;52.274;8.040;2022-08-03T07:15:39;4.38;;;3.15;;
71366;SDS011;60030;52.274;8.040;2022-08-03T07:18:06;5.43;;;3.10;;
71366;SDS011;60030;52.274;8.040;2022-08-03T07:20:33;4.20;;;2.85;;
71366;SDS011;60030;52.274;8.040;2022-08-03T07:23:01;5.25;;;2.92;;
71366;SDS011;60030;52.274;8.040;2022-08-03T07:25:28;5.45;;;2.92;;
71366;SDS011;60030;52.274;8.040;2022-08-03T07:27:55;8.68;;;3.55;;
71366;SDS011;60030;52.274;8.040;2022-08-03T07:30:22;5.63;;;3.10;;
71366;SDS011;60030;52.274;8.040;2022-08-03T07:32:50;4.70;;;2.83;;
71366;SDS011;60030;52.274;8.040;2022-08-03T07:35:17;6.90;;;2.90;;
71366;SDS011;60030;52.274;8.040;2022-08-03T07:37:44;4.15;;;2.78;;
71366;SDS011;60030;52.274;8.040;2022-08-03T07:40:12;6.72;;;2.67;;
71366;SDS011;60030;52.274;8.040;2022-08-03T07:42:39;6.07;;;3.78;;
71366;SDS011;60030;52.274;8.040;2022-08-03T07:45:06;3.75;;;2.60;;
71366;SDS011;60030;52.274;8.040;2022-08-03T07:47:34;9.63;;;2.45;;
71366;SDS011;60030;52.274;8.040;2022-08-03T07:50:04;4.35;;;3.00;;
71366;SDS011;60030;52.274;8.040;2022-08-03T07:52:31;4.72;;;2.60;;
71366;SDS011;60030;52.274;8.040;2022-08-03T07:55:14;5.68;;;2.53;;
71366;SDS011;60030;52.274;8.040;2022-08-03T07:57:41;8.35;;;2.67;;
71366;SDS011;60030;52.274;8.040;2022-08-03T08:00:12;5.28;;;3.05;;
71366;SDS011;60030;52.274;8.040;2022-08-03T08:02:40;8.73;;;2.60;;
71366;SDS011;60030;52.274;8.040;2022-08-03T08:05:09;4.28;;;2.85;;
71366;SDS011;60030;52.274;8.040;2022-08-03T08:07:37;4.53;;;3.00;;
71366;SDS011;60030;52.274;8.040;2022-08-03T08:10:05;2.90;;;2.20;;
71366;SDS011;60030;52.274;8.040;2022-08-03T08:12:34;5.03;;;2.20;;
71366;SDS011;60030;52.274;8.040;2022-08-03T08:15:01;5.80;;;2.40;;
71366;SDS011;60030;52.274;8.040;2022-08-03T08:17:28;7.43;;;2.47;;
71366;SDS011;60030;52.274;8.040;2022-08-03T08:19:55;4.88;;;2.25;;
71366;SDS011;60030;52.274;8.040;2022-08-03T08:22:24;7.55;;;2.60;;
71366;SDS011;60030;52.274;8.040;2022-08-03T08:24:51;4.57;;;2.83;;
71366;SDS011;60030;52.274;8.040;2022-08-03T08:27:18;3.88;;;2.22;;
71366;SDS011;60030;52.274;8.040;2022-08-03T08:29:45;5.80;;;2.30;;
71366;SDS011;60030;52.274;8.040;2022-08-03T08:32:12;4.57;;;2.20;;
71366;SDS011;60030;52.274;8.040;2022-08-03T08:34:40;5.85;;;2.33;;
71366;SDS011;60030;52.274;8.040;2022-08-03T08:37:07;4.63;;;2.33;;
71366;SDS011;60030;52.274;8.040;2022-08-03T08:39:36;3.80;;;2.15;;
71366;SDS011;60030;52.274;8.040;2022-08-03T08:42:03;3.67;;;2.40;;
71366;SDS011;60030;52.274;8.040;2022-08-03T08:44:30;5.63;;;3.08;;
71366;SDS011;60030;52.274;8.040;2022-08-03T08:46:57;4.70;;;2.55;;
71366;SDS011;60030;52.274;8.040;2022-08-03T08:49:28;5.72;;;2.85;;
71366;SDS011;60030;52.274;8.040;2022-08-03T08:51:58;5.80;;;2.53;;
71366;SDS011;60030;52.274;8.040;2022-08-03T08:54:26;3.50;;;2.72;;
71366;SDS011;60030;52.274;8.040;2022-08-03T08:56:56;4.88;;;2.25;;
71366;SDS011;60030;52.274;8.040;2022-08-03T08:59:31;5.10;;;2.40;;
71366;SDS011;60030;52.274;8.040;2022-08-03T09:01:58;3.55;;;2.45;;
71366;SDS011;60030;52.274;8.040;2022-08-03T09:04:26;5.38;;;2.22;;
71366;SDS011;60030;52.274;8.040;2022-08-03T09:06:54;3.33;;;2.28;;
71366;SDS011;60030;52.274;8.040;2022-08-03T09:09:22;3.60;;;2.55;;
71366;SDS011;60030;52.274;8.040;2022-08-03T09:11:49;5.07;;;2.20;;
71366;SDS011;60030;52.274;8.040;2022-08-03T09:14:17;2.65;;;2.05;;
71366;SDS011;60030;52.274;8.040;2022-08-03T09:16:54;3.67;;;2.13;;
71366;SDS011;60030;52.274;8.040;2022-08-03T09:19:24;4.85;;;2.40;;
71366;SDS011;60030;52.274;8.040;2022-08-03T09:22:05;5.03;;;2.10;;
71366;SDS011;60030;52.274;8.040;2022-08-03T09:24:33;6.65;;;2.28;;
71366;SDS011;60030;52.274;8.040;2022-08-03T09:27:01;5.00;;;2.25;;
71366;SDS011;60030;52.274;8.040;2022-08-03T09:29:32;5.07;;;2.33;;
71366;SDS011;60030;52.274;8.040;2022-08-03T09:32:00;3.78;;;2.10;;
71366;SDS011;60030;52.274;8.040;2022-08-03T09:34:29;4.75;;;2.30;;
71366;SDS011;60030;52.274;8.040;2022-08-03T09:36:56;4.28;;;2.25;;
71366;SDS011;60030;52.274;8.040;2022-08-03T09:39:24;4.72;;;2.15;;
71366;SDS011;60030;52.274;8.040;2022-08-03T09:42:06;5.18;;;2.17;;
71366;SDS011;60030;52.274;8.040;2022-08-03T09:44:35;4.22;;;2.20;;
71366;SDS011;60030;52.274;8.040;2022-08-03T09:47:03;6.25;;;2.40;;
71366;SDS011;60030;52.274;8.040;2022-08-03T09:49:31;5.32;;;2.55;;
71366;SDS011;60030;52.274;8.040;2022-08-03T09:51:59;3.92;;;2.28;;
71366;SDS011;60030;52.274;8.040;2022-08-03T09:54:36;4.43;;;2.08;;
71366;SDS011;60030;52.274;8.040;2022-08-03T09:57:04;5.60;;;1.90;;
71366;SDS011;60030;52.274;8.040;2022-08-03T09:59:31;3.40;;;1.75;;
71366;SDS011;60030;52.274;8.040;2022-08-03T10:02:00;4.47;;;1.98;;
71366;SDS011;60030;52.274;8.040;2022-08-03T10:04:28;4.82;;;1.73;;
71366;SDS011;60030;52.274;8.040;2022-08-03T10:07:02;5.18;;;1.80;;
71366;SDS011;60030;52.274;8.040;2022-08-03T10:09:30;2.22;;;1.65;;
71366;SDS011;60030;52.274;8.040;2022-08-03T10:12:05;4.97;;;1.90;;
71366;SDS011;60030;52.274;8.040;2022-08-03T10:14:35;3.95;;;2.10;;
71366;SDS011;60030;52.274;8.040;2022-08-03T10:17:04;5.15;;;2.63;;
71366;SDS011;60030;52.274;8.040;2022-08-03T10:19:31;2.92;;;1.83;;
71366;SDS011;60030;52.274;8.040;2022-08-03T10:22:00;4.90;;;1.88;;
71366;SDS011;60030;52.274;8.040;2022-08-03T10:24:30;3.00;;;1.83;;
71366;SDS011;60030;52.274;8.040;2022-08-03T10:27:01;4.60;;;2.03;;
71366;SDS011;60030;52.274;8.040;2022-08-03T10:29:34;4.78;;;2.00;;
71366;SDS011;60030;52.274;8.040;2022-08-03T10:32:06;4.07;;;1.88;;
71366;SDS011;60030;52.274;8.040;2022-08-03T10:34:39;3.65;;;2.20;;
71366;SDS011;60030;52.274;8.040;2022-08-03T10:37:09;4.85;;;2.28;;
71366;SDS011;60030;52.274;8.040;2022-08-03T10:39:38;5.05;;;2.70;;
71366;SDS011;60030;52.274;8.040;2022-08-03T10:42:18;4.30;;;2.15;;
71366;SDS011;60030;52.274;8.040;2022-08-03T10:44:49;2.35;;;1.65;;
71366;SDS011;60030;52.274;8.040;2022-08-03T10:47:23;7.07;;;2.15;;
71366;SDS011;60030;52.274;8.040;2022-08-03T10:49:50;5.07;;;2.08;;
71366;SDS011;60030;52.274;8.040;2022-08-03T10:52:18;3.30;;;1.90;;
71366;SDS011;60030;52.274;8.040;2022-08-03T10:54:45;3.83;;;1.90;;
71366;SDS011;60030;52.274;8.040;2022-08-03T11:00:13;4.05;;;2.20;;
71366;SDS011;60030;52.274;8.040;2022-08-03T11:03:04;5.90;;;2.17;;
71366;SDS011;60030;52.274;8.040;2022-08-03T11:05:35;5.18;;;2.05;;
71366;SDS011;60030;52.274;8.040;2022-08-03T11:08:20;4.00;;;2.20;;
71366;SDS011;60030;52.274;8.040;2022-08-03T11:10:53;5.10;;;2.00;;
71366;SDS011;60030;52.274;8.040;2022-08-03T11:13:22;2.47;;;1.85;;
71366;SDS011;60030;52.274;8.040;2022-08-03T11:15:51;3.92;;;2.10;;
71366;SDS011;60030;52.274;8.040;2022-08-03T11:18:21;4.15;;;2.47;;
71366;SDS011;60030;52.274;8.040;2022-08-03T11:20:49;5.88;;;2.00;;
71366;SDS011;60030;52.274;8.040;2022-08-03T11:26:07;5.65;;;2.60;;
71366;SDS011;60030;52.274;8.040;2022-08-03T11:28:35;7.45;;;2.65;;
71366;SDS011;60030;52.274;8.040;2022-08-03T11:34:14;2.83;;;2.13;;
71366;SDS011;60030;52.274;8.040;2022-08-03T11:39:44;5.10;;;2.25;;
71366;SDS011;60030;52.274;8.040;2022-08-03T11:45:09;4.50;;;2.35;;
71366;SDS011;60030;52.274;8.040;2022-08-03T11:47:39;5.07;;;2.28;;
71366;SDS011;60030;52.274;8.040;2022-08-03T11:50:09;4.55;;;2.35;;
71366;SDS011;60030;52.274;8.040;2022-08-03T11:52:37;9.32;;;2.40;;
71366;SDS011;60030;52.274;8.040;2022-08-03T11:55:14;3.40;;;2.22;;
71366;SDS011;60030;52.274;8.040;2022-08-03T11:57:43;3.42;;;2.20;;
71366;SDS011;60030;52.274;8.040;2022-08-03T12:00:18;5.05;;;2.20;;
71366;SDS011;60030;52.274;8.040;2022-08-03T12:02:53;8.30;;;2.28;;
71366;SDS011;60030;52.274;8.040;2022-08-03T12:05:32;8.55;;;2.78;;
71366;SDS011;60030;52.274;8.040;2022-08-03T12:08:00;4.97;;;1.90;;
71366;SDS011;60030;52.274;8.040;2022-08-03T12:10:28;5.38;;;3.05;;
71366;SDS011;60030;52.274;8.040;2022-08-03T12:12:55;5.93;;;2.03;;
71366;SDS011;60030;52.274;8.040;2022-08-03T12:15:24;5.80;;;2.50;;
71366;SDS011;60030;52.274;8.040;2022-08-03T12:17:51;3.75;;;2.00;;
71366;SDS011;60030;52.274;8.040;2022-08-03T12:20:20;3.50;;;2.22;;
71366;SDS011;60030;52.274;8.040;2022-08-03T12:22:50;5.10;;;2.20;;
71366;SDS011;60030;52.274;8.040;2022-08-03T12:25:21;5.82;;;1.75;;
71366;SDS011;60030;52.274;8.040;2022-08-03T12:27:49;4.40;;;2.10;;
71366;SDS011;60030;52.274;8.040;2022-08-03T12:30:17;5.18;;;2.05;;
71366;SDS011;60030;52.274;8.040;2022-08-03T12:32:45;7.65;;;2.15;;
71366;SDS011;60030;52.274;8.040;2022-08-03T12:35:20;7.20;;;1.70;;
71366;SDS011;60030;52.274;8.040;2022-08-03T12:37:50;3.78;;;1.92;;
71366;SDS011;60030;52.274;8.040;2022-08-03T12:40:23;3.13;;;1.75;;
71366;SDS011;60030;52.274;8.040;2022-08-03T12:42:51;8.20;;;2.38;;
71366;SDS011;60030;52.274;8.040;2022-08-03T12:45:19;5.13;;;1.80;;
71366;SDS011;60030;52.274;8.040;2022-08-03T12:47:48;3.85;;;2.30;;
71366;SDS011;60030;52.274;8.040;2022-08-03T12:50:22;4.07;;;2.03;;
71366;SDS011;60030;52.274;8.040;2022-08-03T12:52:52;7.22;;;2.13;;
71366;SDS011;60030;52.274;8.040;2022-08-03T12:55:20;6.75;;;2.30;;
71366;SDS011;60030;52.274;8.040;2022-08-03T12:57:48;5.35;;;2.38;;
71366;SDS011;60030;52.274;8.040;2022-08-03T13:00:16;2.92;;;2.15;;
71366;SDS011;60030;52.274;8.040;2022-08-03T13:02:45;4.57;;;2.22;;
71366;SDS011;60030;52.274;8.040;2022-08-03T13:05:24;5.93;;;2.45;;
71366;SDS011;60030;52.274;8.040;2022-08-03T13:07:52;8.43;;;2.03;;
71366;SDS011;60030;52.274;8.040;2022-08-03T13:10:26;6.05;;;1.90;;
71366;SDS011;60030;52.274;8.040;2022-08-03T13:12:54;4.80;;;1.95;;
71366;SDS011;60030;52.274;8.040;2022-08-03T13:15:24;4.03;;;2.15;;
71366;SDS011;60030;52.274;8.040;2022-08-03T13:17:54;6.45;;;2.28;;
71366;SDS011;60030;52.274;8.040;2022-08-03T13:20:21;5.03;;;2.58;;
71366;SDS011;60030;52.274;8.040;2022-08-03T13:22:49;7.20;;;2.08;;
71366;SDS011;60030;52.274;8.040;2022-08-03T13:25:17;5.10;;;2.20;;
71366;SDS011;60030;52.274;8.040;2022-08-03T13:27:45;7.75;;;1.98;;
71366;SDS011;60030;52.274;8.040;2022-08-03T13:30:13;4.75;;;2.15;;
71366;SDS011;60030;52.274;8.040;2022-08-03T13:32:40;3.30;;;2.13;;
71366;SDS011;60030;52.274;8.040;2022-08-03T13:35:07;6.75;;;1.83;;
71366;SDS011;60030;52.274;8.040;2022-08-03T13:37:35;5.70;;;2.20;;
71366;SDS011;60030;52.274;8.040;2022-08-03T13:40:05;6.00;;;2.40;;
71366;SDS011;60030;52.274;8.040;2022-08-03T13:42:34;6.28;;;2.10;;
71366;SDS011;60030;52.274;8.040;2022-08-03T13:45:02;6.78;;;2.10;;
71366;SDS011;60030;52.274;8.040;2022-08-03T13:47:30;6.38;;;2.30;;
71366;SDS011;60030;52.274;8.040;2022-08-03T13:49:58;4.43;;;2.08;;
71366;SDS011;60030;52.274;8.040;2022-08-03T13:52:25;5.82;;;1.95;;
71366;SDS011;60030;52.274;8.040;2022-08-03T13:54:52;7.07;;;2.10;;
71366;SDS011;60030;52.274;8.040;2022-08-03T13:57:19;3.15;;;1.85;;
71366;SDS011;60030;52.274;8.040;2022-08-03T13:59:48;7.75;;;2.47;;
71366;SDS011;60030;52.274;8.040;2022-08-03T14:02:15;3.10;;;1.92;;
71366;SDS011;60030;52.274;8.040;2022-08-03T14:04:42;3.33;;;1.70;;
71366;SDS011;60030;52.274;8.040;2022-08-03T14:07:09;7.30;;;2.03;;
71366;SDS011;60030;52.274;8.040;2022-08-03T14:09:39;7.45;;;2.35;;
71366;SDS011;60030;52.274;8.040;2022-08-03T14:12:06;4.30;;;1.85;;
71366;SDS011;60030;52.274;8.040;2022-08-03T14:14:33;3.90;;;1.88;;
71366;SDS011;60030;52.274;8.040;2022-08-03T14:17:02;3.65;;;2.10;;
71366;SDS011;60030;52.274;8.040;2022-08-03T14:19:30;3.60;;;1.88;;
71366;SDS011;60030;52.274;8.040;2022-08-03T14:21:57;3.78;;;1.65;;
71366;SDS011;60030;52.274;8.040;2022-08-03T14:24:24;3.83;;;1.95;;
71366;SDS011;60030;52.274;8.040;2022-08-03T14:26:51;2.75;;;1.88;;
71366;SDS011;60030;52.274;8.040;2022-08-03T14:29:18;5.93;;;1.83;;
71366;SDS011;60030;52.274;8.040;2022-08-03T14:31:45;4.90;;;1.70;;
71366;SDS011;60030;52.274;8.040;2022-08-03T14:34:14;3.47;;;1.70;;
71366;SDS011;60030;52.274;8.040;2022-08-03T14:36:41;2.55;;;1.63;;
71366;SDS011;60030;52.274;8.040;2022-08-03T14:39:08;4.82;;;2.35;;
71366;SDS011;60030;52.274;8.040;2022-08-03T14:41:35;4.78;;;1.85;;
71366;SDS011;60030;52.274;8.040;2022-08-03T14:44:02;5.57;;;2.15;;
71366;SDS011;60030;52.274;8.040;2022-08-03T14:46:30;4.00;;;1.88;;
71366;SDS011;60030;52.274;8.040;2022-08-03T14:48:57;3.28;;;1.70;;
71366;SDS011;60030;52.274;8.040;2022-08-03T14:51:26;4.22;;;1.73;;
71366;SDS011;60030;52.274;8.040;2022-08-03T14:53:54;5.38;;;2.17;;
71366;SDS011;60030;52.274;8.040;2022-08-03T14:56:21;3.25;;;1.73;;
71366;SDS011;60030;52.274;8.040;2022-08-03T14:58:48;5.55;;;1.92;;
71366;SDS011;60030;52.274;8.040;2022-08-03T15:01:16;4.43;;;1.90;;
71366;SDS011;60030;52.274;8.040;2022-08-03T15:03:43;6.35;;;1.75;;
71366;SDS011;60030;52.274;8.040;2022-08-03T15:06:11;4.20;;;2.08;;
71366;SDS011;60030;52.274;8.040;2022-08-03T15:08:39;5.65;;;2.00;;
71366;SDS011;60030;52.274;8.040;2022-08-03T15:11:06;4.72;;;1.90;;
71366;SDS011;60030;52.274;8.040;2022-08-03T15:13:33;5.35;;;2.67;;